Port Au Choix, Canada
Current Conditions -  °F | °C
As of 9:00 AM on Monday 20 Oct 2014 (Local Time) from CWDH Reporting Station
Scattered Clouds Scattered Clouds  
Wind Chill: 55°   Ceiling: Unl
Heat Index: 55°   Visibility: 9mi
Dew Point: 51°   Wind: 9mph
Humidity: 84%   Direction: 80°E
Pressure: 29.23"   Gusts: NA
Location:  50.72°N, 57.37°W
Report Text: CWDH 201100Z AUTO 08008KT 9SM SCT026 13/10 A2923 RMK SLP899 PK WND 07017/// T01300104 70065 WSI/SWOB
Loading
Personal Weather Stations






























Interactive Weather Map
Tropical Storm Tracking
New forecast layout! Learn more

10-Day Weather Forecast

Advertisements
Track Severe Weather on mobile